sensor_id;sensor_type;location;lat;lon;timestamp;pressure;altitude;pressure_sealevel;temperature;humidity
84888;BME280;75150;54.494;18.518;2024-02-28T00:00:33;100702.47;;;2.56;92.84
84888;BME280;75150;54.494;18.518;2024-02-28T00:02:55;100706.91;;;2.54;92.58
84888;BME280;75150;54.494;18.518;2024-02-28T00:04:57;100695.56;;;2.55;92.76
84888;BME280;75150;54.494;18.518;2024-02-28T00:06:58;100699.00;;;2.55;92.77
84888;BME280;75150;54.494;18.518;2024-02-28T00:08:59;100701.66;;;2.54;92.53
84888;BME280;75150;54.494;18.518;2024-02-28T00:11:01;100689.44;;;2.54;93.05
84888;BME280;75150;54.494;18.518;2024-02-28T00:13:02;100692.88;;;2.56;92.97
84888;BME280;75150;54.494;18.518;2024-02-28T00:15:05;100691.16;;;2.55;92.50
84888;BME280;75150;54.494;18.518;2024-02-28T00:17:06;100693.66;;;2.58;92.89
84888;BME280;75150;54.494;18.518;2024-02-28T00:19:10;100691.09;;;2.57;92.53
84888;BME280;75150;54.494;18.518;2024-02-28T00:21:11;100692.88;;;2.56;92.98
84888;BME280;75150;54.494;18.518;2024-02-28T00:23:12;100697.13;;;2.59;93.02
84888;BME280;75150;54.494;18.518;2024-02-28T00:25:14;100690.13;;;2.59;92.70
84888;BME280;75150;54.494;18.518;2024-02-28T00:27:15;100690.03;;;2.61;92.84
84888;BME280;75150;54.494;18.518;2024-02-28T00:29:16;100682.19;;;2.61;92.92
84888;BME280;75150;54.494;18.518;2024-02-28T00:31:18;100686.50;;;2.62;92.89
84888;BME280;75150;54.494;18.518;2024-02-28T00:33:19;100689.13;;;2.62;92.81
84888;BME280;75150;54.494;18.518;2024-02-28T00:35:22;100690.97;;;2.60;92.78
84888;BME280;75150;54.494;18.518;2024-02-28T00:37:23;100690.13;;;2.59;92.85
84888;BME280;75150;54.494;18.518;2024-02-28T00:39:25;100694.50;;;2.59;92.92
84888;BME280;75150;54.494;18.518;2024-02-28T00:41:26;100695.56;;;2.55;92.25
84888;BME280;75150;54.494;18.518;2024-02-28T00:43:27;100693.88;;;2.52;92.47
84888;BME280;75150;54.494;18.518;2024-02-28T00:45:29;100695.59;;;2.53;93.02
84888;BME280;75150;54.494;18.518;2024-02-28T00:47:30;100689.50;;;2.53;92.77
84888;BME280;75150;54.494;18.518;2024-02-28T00:49:31;100693.94;;;2.51;92.84
84888;BME280;75150;54.494;18.518;2024-02-28T00:51:34;100701.78;;;2.51;92.80
84888;BME280;75150;54.494;18.518;2024-02-28T00:53:36;100692.19;;;2.51;92.75
84888;BME280;75150;54.494;18.518;2024-02-28T00:55:37;100696.50;;;2.52;92.53
84888;BME280;75150;54.494;18.518;2024-02-28T00:57:39;100691.34;;;2.51;92.96
84888;BME280;75150;54.494;18.518;2024-02-28T00:59:40;100690.34;;;2.53;93.13
84888;BME280;75150;54.494;18.518;2024-02-28T01:01:41;100690.41;;;2.52;92.93
84888;BME280;75150;54.494;18.518;2024-02-28T01:03:43;100687.03;;;2.50;92.69
84888;BME280;75150;54.494;18.518;2024-02-28T01:05:44;100684.41;;;2.50;93.12
84888;BME280;75150;54.494;18.518;2024-02-28T01:07:47;100673.09;;;2.49;92.79
84888;BME280;75150;54.494;18.518;2024-02-28T01:09:49;100681.78;;;2.50;92.74
84888;BME280;75150;54.494;18.518;2024-02-28T01:11:50;100685.31;;;2.49;92.68
84888;BME280;75150;54.494;18.518;2024-02-28T01:13:51;100682.78;;;2.47;92.59
84888;BME280;75150;54.494;18.518;2024-02-28T01:15:53;100676.56;;;2.50;93.08
84888;BME280;75150;54.494;18.518;2024-02-28T01:17:54;100676.50;;;2.51;92.91
84888;BME280;75150;54.494;18.518;2024-02-28T01:19:57;100686.09;;;2.51;92.99
84888;BME280;75150;54.494;18.518;2024-02-28T01:21:58;100674.00;;;2.48;92.86
84888;BME280;75150;54.494;18.518;2024-02-28T01:24:01;100674.94;;;2.47;93.00
84888;BME280;75150;54.494;18.518;2024-02-28T01:26:03;100677.28;;;2.53;93.02
84888;BME280;75150;54.494;18.518;2024-02-28T01:28:05;100679.03;;;2.53;93.13
84888;BME280;75150;54.494;18.518;2024-02-28T01:30:07;100686.03;;;2.52;93.13
84888;BME280;75150;54.494;18.518;2024-02-28T01:32:09;100680.75;;;2.54;92.90
84888;BME280;75150;54.494;18.518;2024-02-28T01:34:10;100679.88;;;2.53;92.82
84888;BME280;75150;54.494;18.518;2024-02-28T01:36:11;100677.34;;;2.52;92.66
84888;BME280;75150;54.494;18.518;2024-02-28T01:38:13;100677.47;;;2.49;92.91
84888;BME280;75150;54.494;18.518;2024-02-28T01:40:16;100680.16;;;2.47;93.01
84888;BME280;75150;54.494;18.518;2024-02-28T01:42:17;100680.28;;;2.44;92.75
84888;BME280;75150;54.494;18.518;2024-02-28T01:44:19;100675.00;;;2.46;93.00
84888;BME280;75150;54.494;18.518;2024-02-28T01:46:22;100673.31;;;2.45;93.25
84888;BME280;75150;54.494;18.518;2024-02-28T01:48:25;100674.22;;;2.44;92.81
84888;BME280;75150;54.494;18.518;2024-02-28T01:50:26;100673.31;;;2.45;93.28
84888;BME280;75150;54.494;18.518;2024-02-28T01:52:28;100665.44;;;2.45;92.79
84888;BME280;75150;54.494;18.518;2024-02-28T01:54:31;100667.22;;;2.44;93.18
84888;BME280;75150;54.494;18.518;2024-02-28T01:56:36;100662.00;;;2.44;93.12
84888;BME280;75150;54.494;18.518;2024-02-28T01:58:39;100660.22;;;2.45;92.89
84888;BME280;75150;54.494;18.518;2024-02-28T02:00:41;100658.53;;;2.44;92.98
84888;BME280;75150;54.494;18.518;2024-02-28T02:02:43;100661.06;;;2.45;93.16
84888;BME280;75150;54.494;18.518;2024-02-28T02:04:44;100651.59;;;2.43;92.71
84888;BME280;75150;54.494;18.518;2024-02-28T02:06:46;100650.69;;;2.44;93.20
84888;BME280;75150;54.494;18.518;2024-02-28T02:08:49;100652.31;;;2.46;92.96
84888;BME280;75150;54.494;18.518;2024-02-28T02:10:50;100657.47;;;2.48;92.98
84888;BME280;75150;54.494;18.518;2024-02-28T02:12:53;100653.09;;;2.48;93.01
84888;BME280;75150;54.494;18.518;2024-02-28T02:14:54;100659.03;;;2.52;92.94
84888;BME280;75150;54.494;18.518;2024-02-28T02:16:56;100658.97;;;2.53;93.10
84888;BME280;75150;54.494;18.518;2024-02-28T02:18:57;100650.19;;;2.54;92.93
84888;BME280;75150;54.494;18.518;2024-02-28T02:21:02;100661.47;;;2.56;93.19
84888;BME280;75150;54.494;18.518;2024-02-28T02:23:07;100650.25;;;2.53;93.05
84888;BME280;75150;54.494;18.518;2024-02-28T02:25:09;100659.81;;;2.54;92.88
84888;BME280;75150;54.494;18.518;2024-02-28T02:27:10;100655.41;;;2.56;92.93
84888;BME280;75150;54.494;18.518;2024-02-28T02:29:12;100646.63;;;2.57;93.21
84888;BME280;75150;54.494;18.518;2024-02-28T02:31:14;100657.09;;;2.57;92.89
84888;BME280;75150;54.494;18.518;2024-02-28T02:33:15;100651.09;;;2.55;92.66
84888;BME280;75150;54.494;18.518;2024-02-28T02:35:16;100655.31;;;2.57;92.80
84888;BME280;75150;54.494;18.518;2024-02-28T02:37:18;100663.16;;;2.57;93.07
84888;BME280;75150;54.494;18.518;2024-02-28T02:39:20;100662.25;;;2.58;92.87
84888;BME280;75150;54.494;18.518;2024-02-28T02:41:22;100670.94;;;2.59;92.68
84888;BME280;75150;54.494;18.518;2024-02-28T02:43:23;100667.41;;;2.60;93.16
84888;BME280;75150;54.494;18.518;2024-02-28T02:45:25;100666.56;;;2.59;93.00
84888;BME280;75150;54.494;18.518;2024-02-28T02:47:26;100659.81;;;2.54;92.38
84888;BME280;75150;54.494;18.518;2024-02-28T02:49:27;100651.38;;;2.47;92.67
84888;BME280;75150;54.494;18.518;2024-02-28T02:51:29;100649.69;;;2.46;92.81
84888;BME280;75150;54.494;18.518;2024-02-28T02:53:30;100650.69;;;2.44;93.00
84888;BME280;75150;54.494;18.518;2024-02-28T02:55:33;100658.53;;;2.44;93.00
84888;BME280;75150;54.494;18.518;2024-02-28T02:57:35;100662.09;;;2.41;93.21
84888;BME280;75150;54.494;18.518;2024-02-28T02:59:36;100662.00;;;2.44;93.19
84888;BME280;75150;54.494;18.518;2024-02-28T03:01:38;100657.47;;;2.48;93.13
84888;BME280;75150;54.494;18.518;2024-02-28T03:03:39;100656.56;;;2.49;93.34
84888;BME280;75150;54.494;18.518;2024-02-28T03:05:40;100663.25;;;2.56;92.97
84888;BME280;75150;54.494;18.518;2024-02-28T03:07:42;100656.25;;;2.56;93.25
84888;BME280;75150;54.494;18.518;2024-02-28T03:09:43;100647.53;;;2.56;93.07
84888;BME280;75150;54.494;18.518;2024-02-28T03:11:46;100652.63;;;2.59;93.22
84888;BME280;75150;54.494;18.518;2024-02-28T03:13:47;100661.34;;;2.59;93.15
84888;BME280;75150;54.494;18.518;2024-02-28T03:15:48;100651.72;;;2.60;93.22
84888;BME280;75150;54.494;18.518;2024-02-28T03:17:50;100656.97;;;2.60;93.08
84888;BME280;75150;54.494;18.518;2024-02-28T03:19:51;100655.13;;;2.62;93.12
84888;BME280;75150;54.494;18.518;2024-02-28T03:21:53;100647.47;;;2.57;92.48
84888;BME280;75150;54.494;18.518;2024-02-28T03:23:54;100649.25;;;2.57;92.68
84888;BME280;75150;54.494;18.518;2024-02-28T03:25:55;100644.88;;;2.57;92.81
84888;BME280;75150;54.494;18.518;2024-02-28T03:27:58;100644.78;;;2.59;93.36
84888;BME280;75150;54.494;18.518;2024-02-28T03:30:00;100647.41;;;2.59;92.70
84888;BME280;75150;54.494;18.518;2024-02-28T03:32:01;100647.34;;;2.60;93.10
84888;BME280;75150;54.494;18.518;2024-02-28T03:34:03;100650.72;;;2.62;93.22
84888;BME280;75150;54.494;18.518;2024-02-28T03:36:04;100654.19;;;2.63;92.85
84888;BME280;75150;54.494;18.518;2024-02-28T03:38:06;100655.06;;;2.63;93.01
84888;BME280;75150;54.494;18.518;2024-02-28T03:40:08;100651.66;;;2.61;92.63
84888;BME280;75150;54.494;18.518;2024-02-28T03:42:10;100657.88;;;2.59;93.16
84888;BME280;75150;54.494;18.518;2024-02-28T03:44:12;100666.56;;;2.59;93.19
84888;BME280;75150;54.494;18.518;2024-02-28T03:46:14;100666.56;;;2.59;93.14
84888;BME280;75150;54.494;18.518;2024-02-28T03:48:15;100666.50;;;2.61;93.16
84888;BME280;75150;54.494;18.518;2024-02-28T03:50:16;100664.72;;;2.61;93.17
84888;BME280;75150;54.494;18.518;2024-02-28T03:52:18;100662.06;;;2.63;93.03
84888;BME280;75150;54.494;18.518;2024-02-28T03:54:19;100662.06;;;2.63;92.97
84888;BME280;75150;54.494;18.518;2024-02-28T03:56:23;100658.50;;;2.64;93.24
84888;BME280;75150;54.494;18.518;2024-02-28T03:58:25;100661.13;;;2.64;93.01
84888;BME280;75150;54.494;18.518;2024-02-28T04:00:28;100653.22;;;2.65;92.77
84888;BME280;75150;54.494;18.518;2024-02-28T04:02:29;100651.44;;;2.66;93.10
84888;BME280;75150;54.494;18.518;2024-02-28T04:04:30;100648.91;;;2.64;92.94
84888;BME280;75150;54.494;18.518;2024-02-28T04:06:32;100647.94;;;2.67;92.69
84888;BME280;75150;54.494;18.518;2024-02-28T04:08:33;100653.22;;;2.65;92.83
84888;BME280;75150;54.494;18.518;2024-02-28T04:10:35;100656.63;;;2.68;93.00
84888;BME280;75150;54.494;18.518;2024-02-28T04:12:36;100657.50;;;2.68;93.07
84888;BME280;75150;54.494;18.518;2024-02-28T04:14:37;100661.81;;;2.69;92.82
84888;BME280;75150;54.494;18.518;2024-02-28T04:16:42;100655.84;;;2.65;92.85
84888;BME280;75150;54.494;18.518;2024-02-28T04:18:44;100665.50;;;2.63;92.76
84888;BME280;75150;54.494;18.518;2024-02-28T04:20:45;100670.75;;;2.63;93.13
84888;BME280;75150;54.494;18.518;2024-02-28T04:22:47;100657.66;;;2.63;92.89
84888;BME280;75150;54.494;18.518;2024-02-28T04:24:48;100655.19;;;2.60;92.69
84888;BME280;75150;54.494;18.518;2024-02-28T04:26:50;100645.72;;;2.58;92.86
84888;BME280;75150;54.494;18.518;2024-02-28T04:28:51;100655.25;;;2.59;92.93
84888;BME280;75150;54.494;18.518;2024-02-28T04:30:52;100656.19;;;2.58;92.76
84888;BME280;75150;54.494;18.518;2024-02-28T04:32:55;100661.41;;;2.58;92.68
84888;BME280;75150;54.494;18.518;2024-02-28T04:34:56;100656.09;;;2.59;92.78
84888;BME280;75150;54.494;18.518;2024-02-28T04:36:58;100653.41;;;2.61;93.11
84888;BME280;75150;54.494;18.518;2024-02-28T04:38:59;100653.50;;;2.59;92.71
84888;BME280;75150;54.494;18.518;2024-02-28T04:41:00;100657.75;;;2.62;92.84
84888;BME280;75150;54.494;18.518;2024-02-28T04:43:02;100661.34;;;2.59;92.83
84888;BME280;75150;54.494;18.518;2024-02-28T04:45:04;100663.16;;;2.57;92.53
84888;BME280;75150;54.494;18.518;2024-02-28T04:47:06;100668.41;;;2.57;92.82
84888;BME280;75150;54.494;18.518;2024-02-28T04:49:08;100664.03;;;2.58;92.85
84888;BME280;75150;54.494;18.518;2024-02-28T04:51:10;100669.19;;;2.59;92.99
84888;BME280;75150;54.494;18.518;2024-02-28T04:53:11;100665.72;;;2.59;92.99
84888;BME280;75150;54.494;18.518;2024-02-28T04:55:13;100667.41;;;2.60;93.01
84888;BME280;75150;54.494;18.518;2024-02-28T04:57:14;100660.50;;;2.59;93.00
84888;BME280;75150;54.494;18.518;2024-02-28T04:59:15;100663.88;;;2.61;92.94
84888;BME280;75150;54.494;18.518;2024-02-28T05:01:17;100663.88;;;2.61;92.59
84888;BME280;75150;54.494;18.518;2024-02-28T05:03:18;100671.66;;;2.62;92.75
84888;BME280;75150;54.494;18.518;2024-02-28T05:05:21;100659.44;;;2.63;92.73
84888;BME280;75150;54.494;18.518;2024-02-28T05:07:22;100657.81;;;2.60;92.60
84888;BME280;75150;54.494;18.518;2024-02-28T05:09:25;100664.81;;;2.60;93.06
84888;BME280;75150;54.494;18.518;2024-02-28T05:11:26;100659.63;;;2.58;92.70
84888;BME280;75150;54.494;18.518;2024-02-28T05:13:27;100651.72;;;2.60;92.92
84888;BME280;75150;54.494;18.518;2024-02-28T05:15:29;100665.66;;;2.60;92.68
84888;BME280;75150;54.494;18.518;2024-02-28T05:17:30;100663.81;;;2.62;92.96
84888;BME280;75150;54.494;18.518;2024-02-28T05:19:32;100672.50;;;2.63;92.60
84888;BME280;75150;54.494;18.518;2024-02-28T05:21:40;100667.28;;;2.63;92.65
84888;BME280;75150;54.494;18.518;2024-02-28T05:23:42;100666.44;;;2.62;92.66
84888;BME280;75150;54.494;18.518;2024-02-28T05:25:43;100670.69;;;2.65;93.08
84888;BME280;75150;54.494;18.518;2024-02-28T05:27:45;100668.13;;;2.63;92.37
84888;BME280;75150;54.494;18.518;2024-02-28T05:29:46;100668.06;;;2.65;92.46
84888;BME280;75150;54.494;18.518;2024-02-28T05:31:47;100676.91;;;2.62;92.85
84888;BME280;75150;54.494;18.518;2024-02-28T05:33:50;100670.75;;;2.63;92.93
84888;BME280;75150;54.494;18.518;2024-02-28T05:35:51;100676.91;;;2.62;92.47
84888;BME280;75150;54.494;18.518;2024-02-28T05:37:54;100671.72;;;2.61;92.72
84888;BME280;75150;54.494;18.518;2024-02-28T05:39:56;100669.91;;;2.63;92.58
84888;BME280;75150;54.494;18.518;2024-02-28T05:41:57;100669.91;;;2.63;92.50
84888;BME280;75150;54.494;18.518;2024-02-28T05:43:59;100675.13;;;2.63;92.63
84888;BME280;75150;54.494;18.518;2024-02-28T05:46:00;100678.59;;;2.63;92.87
84888;BME280;75150;54.494;18.518;2024-02-28T05:48:02;100678.59;;;2.63;92.66
84888;BME280;75150;54.494;18.518;2024-02-28T05:50:03;100675.91;;;2.65;92.68
84888;BME280;75150;54.494;18.518;2024-02-28T05:52:05;100685.59;;;2.63;92.67
84888;BME280;75150;54.494;18.518;2024-02-28T05:54:08;100690.97;;;2.60;92.19
84888;BME280;75150;54.494;18.518;2024-02-28T05:56:10;100682.25;;;2.59;92.92
84888;BME280;75150;54.494;18.518;2024-02-28T05:58:11;100690.91;;;2.61;92.61
84888;BME280;75150;54.494;18.518;2024-02-28T06:00:14;100686.44;;;2.63;92.97
84888;BME280;75150;54.494;18.518;2024-02-28T06:02:15;100689.81;;;2.67;92.99
84888;BME280;75150;54.494;18.518;2024-02-28T06:04:17;100689.72;;;2.69;92.74
84888;BME280;75150;54.494;18.518;2024-02-28T06:06:18;100699.22;;;2.71;92.56
84888;BME280;75150;54.494;18.518;2024-02-28T06:08:20;100694.06;;;2.70;92.25
84888;BME280;75150;54.494;18.518;2024-02-28T06:10:22;100702.81;;;2.69;92.41
84888;BME280;75150;54.494;18.518;2024-02-28T06:12:24;100694.06;;;2.70;92.83
84888;BME280;75150;54.494;18.518;2024-02-28T06:14:25;100695.81;;;2.69;92.72
84888;BME280;75150;54.494;18.518;2024-02-28T06:16:26;100698.28;;;2.72;92.72
84888;BME280;75150;54.494;18.518;2024-02-28T06:18:28;100705.16;;;2.75;92.87
84888;BME280;75150;54.494;18.518;2024-02-28T06:20:29;100707.72;;;2.76;92.84
84888;BME280;75150;54.494;18.518;2024-02-28T06:22:31;100709.53;;;2.74;92.87
84888;BME280;75150;54.494;18.518;2024-02-28T06:24:33;100709.53;;;2.74;92.85
84888;BME280;75150;54.494;18.518;2024-02-28T06:26:36;100705.22;;;2.73;92.36
84888;BME280;75150;54.494;18.518;2024-02-28T06:28:37;100711.31;;;2.74;92.80
84888;BME280;75150;54.494;18.518;2024-02-28T06:30:39;100708.56;;;2.77;92.65
84888;BME280;75150;54.494;18.518;2024-02-28T06:32:40;100703.31;;;2.77;92.87
84888;BME280;75150;54.494;18.518;2024-02-28T06:34:42;100702.38;;;2.79;92.77
84888;BME280;75150;54.494;18.518;2024-02-28T06:36:43;100699.00;;;2.76;92.55
84888;BME280;75150;54.494;18.518;2024-02-28T06:38:44;100701.56;;;2.77;92.86
84888;BME280;75150;54.494;18.518;2024-02-28T06:40:46;100706.78;;;2.77;92.57
84888;BME280;75150;54.494;18.518;2024-02-28T06:42:48;100711.06;;;2.80;92.97
84888;BME280;75150;54.494;18.518;2024-02-28T06:44:50;100703.94;;;2.83;92.70
84888;BME280;75150;54.494;18.518;2024-02-28T06:46:51;100702.16;;;2.84;92.63
84888;BME280;75150;54.494;18.518;2024-02-28T06:48:53;100702.16;;;2.84;92.70
84888;BME280;75150;54.494;18.518;2024-02-28T06:50:54;100691.69;;;2.84;92.51
84888;BME280;75150;54.494;18.518;2024-02-28T06:52:56;100696.72;;;2.88;92.84
84888;BME280;75150;54.494;18.518;2024-02-28T06:54:57;100700.09;;;2.92;93.10
84888;BME280;75150;54.494;18.518;2024-02-28T06:56:59;100705.25;;;2.93;93.11
84888;BME280;75150;54.494;18.518;2024-02-28T06:59:01;100704.31;;;2.94;92.87
84888;BME280;75150;54.494;18.518;2024-02-28T07:01:03;100706.03;;;2.96;93.07
84888;BME280;75150;54.494;18.518;2024-02-28T07:03:04;100716.50;;;2.96;92.51
84888;BME280;75150;54.494;18.518;2024-02-28T07:05:07;100711.19;;;2.97;92.55
84888;BME280;75150;54.494;18.518;2024-02-28T07:07:08;100718.19;;;2.97;92.61
84888;BME280;75150;54.494;18.518;2024-02-28T07:09:11;100723.34;;;2.98;92.73
84888;BME280;75150;54.494;18.518;2024-02-28T07:11:15;100726.91;;;2.97;92.44
84888;BME280;75150;54.494;18.518;2024-02-28T07:13:17;100727.75;;;2.98;92.96
84888;BME280;75150;54.494;18.518;2024-02-28T07:15:20;100719.75;;;3.01;92.61
84888;BME280;75150;54.494;18.518;2024-02-28T07:17:21;100721.44;;;3.02;92.59
84888;BME280;75150;54.494;18.518;2024-02-28T07:19:23;100723.13;;;3.04;92.49
84888;BME280;75150;54.494;18.518;2024-02-28T07:21:24;100736.97;;;3.06;92.41
84888;BME280;75150;54.494;18.518;2024-02-28T07:23:25;100727.28;;;3.08;92.98
84888;BME280;75150;54.494;18.518;2024-02-28T07:25:27;100731.59;;;3.09;92.39
84888;BME280;75150;54.494;18.518;2024-02-28T07:27:28;100733.16;;;3.13;93.02
84888;BME280;75150;54.494;18.518;2024-02-28T07:29:29;100728.66;;;3.17;93.00
84888;BME280;75150;54.494;18.518;2024-02-28T07:31:32;100734.75;;;3.17;92.47
84888;BME280;75150;54.494;18.518;2024-02-28T07:33:34;100739.91;;;3.19;92.48
84888;BME280;75150;54.494;18.518;2024-02-28T07:35:44;100741.75;;;3.17;92.14
84888;BME280;75150;54.494;18.518;2024-02-28T07:37:45;100739.25;;;3.14;92.04
84888;BME280;75150;54.494;18.518;2024-02-28T07:39:47;100734.94;;;3.13;92.33
84888;BME280;75150;54.494;18.518;2024-02-28T07:41:48;100736.78;;;3.11;92.33
84888;BME280;75150;54.494;18.518;2024-02-28T07:43:49;100740.06;;;3.16;92.83
84888;BME280;75150;54.494;18.518;2024-02-28T07:45:51;100735.69;;;3.16;92.87
84888;BME280;75150;54.494;18.518;2024-02-28T07:47:53;100732.84;;;3.21;92.96
84888;BME280;75150;54.494;18.518;2024-02-28T07:49:55;100728.38;;;3.23;92.74
84888;BME280;75150;54.494;18.518;2024-02-28T07:51:56;100737.94;;;3.24;92.07
84888;BME280;75150;54.494;18.518;2024-02-28T07:53:57;100736.94;;;3.27;92.30
84888;BME280;75150;54.494;18.518;2024-02-28T07:55:59;100740.31;;;3.30;92.46
84888;BME280;75150;54.494;18.518;2024-02-28T07:58:00;100753.19;;;3.35;92.78
84888;BME280;75150;54.494;18.518;2024-02-28T08:00:02;100751.50;;;3.34;91.92
84888;BME280;75150;54.494;18.518;2024-02-28T08:02:04;100753.41;;;3.30;92.16
84888;BME280;75150;54.494;18.518;2024-02-28T08:04:07;100756.88;;;3.31;92.33
84888;BME280;75150;54.494;18.518;2024-02-28T08:06:09;100761.19;;;3.32;92.68
84888;BME280;75150;54.494;18.518;2024-02-28T08:08:11;100762.97;;;3.31;92.58
84888;BME280;75150;54.494;18.518;2024-02-28T08:10:12;100762.81;;;3.34;92.42
84888;BME280;75150;54.494;18.518;2024-02-28T08:12:14;100754.19;;;3.32;91.86
84888;BME280;75150;54.494;18.518;2024-02-28T08:14:15;100763.88;;;3.30;92.57
84888;BME280;75150;54.494;18.518;2024-02-28T08:16:16;100761.19;;;3.32;92.50
84888;BME280;75150;54.494;18.518;2024-02-28T08:18:18;100752.56;;;3.30;92.26
84888;BME280;75150;54.494;18.518;2024-02-28T08:20:21;100756.03;;;3.30;92.19
84888;BME280;75150;54.494;18.518;2024-02-28T08:22:22;100749.16;;;3.28;92.09
84888;BME280;75150;54.494;18.518;2024-02-28T08:24:23;100754.25;;;3.31;92.34
84888;BME280;75150;54.494;18.518;2024-02-28T08:26:25;100756.72;;;3.34;92.75
84888;BME280;75150;54.494;18.518;2024-02-28T08:28:26;100761.91;;;3.35;92.09
84888;BME280;75150;54.494;18.518;2024-02-28T08:30:27;100759.41;;;3.32;91.84
84888;BME280;75150;54.494;18.518;2024-02-28T08:32:29;100760.34;;;3.31;92.16
84888;BME280;75150;54.494;18.518;2024-02-28T08:34:30;100763.94;;;3.29;91.99
84888;BME280;75150;54.494;18.518;2024-02-28T08:36:33;100754.50;;;3.24;91.71
84888;BME280;75150;54.494;18.518;2024-02-28T08:38:34;100756.19;;;3.26;92.59
84888;BME280;75150;54.494;18.518;2024-02-28T08:40:35;100758.63;;;3.30;92.23
84888;BME280;75150;54.494;18.518;2024-02-28T08:42:37;100757.56;;;3.34;92.42
84888;BME280;75150;54.494;18.518;2024-02-28T08:44:39;100761.03;;;3.35;91.88
84888;BME280;75150;54.494;18.518;2024-02-28T08:46:40;100765.28;;;3.37;92.67
84888;BME280;75150;54.494;18.518;2024-02-28T08:48:42;100761.56;;;3.43;92.53
84888;BME280;75150;54.494;18.518;2024-02-28T08:50:43;100764.06;;;3.46;92.27
84888;BME280;75150;54.494;18.518;2024-02-28T08:52:46;100760.59;;;3.45;91.77
84888;BME280;75150;54.494;18.518;2024-02-28T08:54:48;100771.84;;;3.47;91.93
84888;BME280;75150;54.494;18.518;2024-02-28T08:56:49;100766.59;;;3.47;92.18
84888;BME280;75150;54.494;18.518;2024-02-28T08:58:51;100769.22;;;3.47;91.87
84888;BME280;75150;54.494;18.518;2024-02-28T09:00:52;100765.59;;;3.50;92.51
84888;BME280;75150;54.494;18.518;2024-02-28T09:02:53;100769.88;;;3.52;92.24
84888;BME280;75150;54.494;18.518;2024-02-28T09:04:55;100769.03;;;3.52;92.07
84888;BME280;75150;54.494;18.518;2024-02-28T09:06:56;100765.59;;;3.50;92.47
84888;BME280;75150;54.494;18.518;2024-02-28T09:08:59;100759.66;;;3.46;90.96
84888;BME280;75150;54.494;18.518;2024-02-28T09:11:00;100766.81;;;3.43;91.82
84888;BME280;75150;54.494;18.518;2024-02-28T09:13:02;100770.22;;;3.45;92.43
84888;BME280;75150;54.494;18.518;2024-02-28T09:15:04;100777.84;;;3.49;92.42
84888;BME280;75150;54.494;18.518;2024-02-28T09:17:05;100768.19;;;3.51;92.60
84888;BME280;75150;54.494;18.518;2024-02-28T09:19:07;100770.44;;;3.59;92.25
84888;BME280;75150;54.494;18.518;2024-02-28T09:21:08;100784.22;;;3.64;92.43
84888;BME280;75150;54.494;18.518;2024-02-28T09:23:10;100780.66;;;3.65;91.98
84888;BME280;75150;54.494;18.518;2024-02-28T09:25:12;100778.81;;;3.67;92.31
84888;BME280;75150;54.494;18.518;2024-02-28T09:27:14;100780.44;;;3.70;91.77
84888;BME280;75150;54.494;18.518;2024-02-28T09:29:15;100762.25;;;3.67;91.57
84888;BME280;75150;54.494;18.518;2024-02-28T09:31:17;100768.34;;;3.67;91.80
84888;BME280;75150;54.494;18.518;2024-02-28T09:33:19;100760.25;;;3.72;92.09
84888;BME280;75150;54.494;18.518;2024-02-28T09:35:20;100767.94;;;3.76;92.42
84888;BME280;75150;54.494;18.518;2024-02-28T09:37:22;100773.88;;;3.80;91.89
84888;BME280;75150;54.494;18.518;2024-02-28T09:39:23;100771.25;;;3.80;91.61
84888;BME280;75150;54.494;18.518;2024-02-28T09:41:26;100771.34;;;3.78;91.65
84888;BME280;75150;54.494;18.518;2024-02-28T09:43:29;100775.72;;;3.78;91.59
84888;BME280;75150;54.494;18.518;2024-02-28T09:45:31;100770.34;;;3.81;92.13
84888;BME280;75150;54.494;18.518;2024-02-28T09:47:33;100780.81;;;3.81;92.47
84888;BME280;75150;54.494;18.518;2024-02-28T09:49:35;100776.50;;;3.80;91.67
84888;BME280;75150;54.494;18.518;2024-02-28T09:51:37;100781.16;;;3.73;91.94
84888;BME280;75150;54.494;18.518;2024-02-28T09:53:38;100787.47;;;3.69;92.17
84888;BME280;75150;54.494;18.518;2024-02-28T09:55:40;100783.06;;;3.70;92.07
84888;BME280;75150;54.494;18.518;2024-02-28T09:57:43;100788.38;;;3.68;91.60
84888;BME280;75150;54.494;18.518;2024-02-28T09:59:47;100802.28;;;3.70;91.88
84888;BME280;75150;54.494;18.518;2024-02-28T10:01:53;100788.94;;;3.75;92.33
84888;BME280;75150;54.494;18.518;2024-02-28T10:03:59;100789.59;;;3.80;92.11
84888;BME280;75150;54.494;18.518;2024-02-28T10:06:00;100786.91;;;3.81;92.32
84888;BME280;75150;54.494;18.518;2024-02-28T10:08:02;100783.22;;;3.86;91.79
84888;BME280;75150;54.494;18.518;2024-02-28T10:10:05;100782.25;;;3.88;91.92
84888;BME280;75150;54.494;18.518;2024-02-28T10:12:07;100786.59;;;3.89;91.42
84888;BME280;75150;54.494;18.518;2024-02-28T10:14:09;100787.28;;;3.93;91.60
84888;BME280;75150;54.494;18.518;2024-02-28T10:16:11;100791.53;;;3.95;92.17
84888;BME280;75150;54.494;18.518;2024-02-28T10:18:12;100797.28;;;4.03;92.49
84888;BME280;75150;54.494;18.518;2024-02-28T10:20:14;100797.13;;;4.06;90.98
84888;BME280;75150;54.494;18.518;2024-02-28T10:22:15;100800.53;;;4.08;91.39
84888;BME280;75150;54.494;18.518;2024-02-28T10:24:17;100803.81;;;4.14;92.18
84888;BME280;75150;54.494;18.518;2024-02-28T10:26:18;100802.88;;;4.15;91.74
84888;BME280;75150;54.494;18.518;2024-02-28T10:28:19;100802.66;;;4.19;92.13
84888;BME280;75150;54.494;18.518;2024-02-28T10:30:23;100788.19;;;4.10;91.28
84888;BME280;75150;54.494;18.518;2024-02-28T10:32:25;100794.28;;;4.11;91.30
84888;BME280;75150;54.494;18.518;2024-02-28T10:34:26;100797.50;;;4.18;91.87
84888;BME280;75150;54.494;18.518;2024-02-28T10:36:30;100801.66;;;4.22;92.17